sensor_id;sensor_type;location;lat;lon;timestamp;temperature;humidity
1453;DHT22;720;47.738;7.998;2023-02-05T00:02:10;2.10;99.90
1453;DHT22;720;47.738;7.998;2023-02-05T00:04:36;2.00;99.90
1453;DHT22;720;47.738;7.998;2023-02-05T00:07:03;1.90;99.90
1453;DHT22;720;47.738;7.998;2023-02-05T00:09:28;1.90;99.90
1453;DHT22;720;47.738;7.998;2023-02-05T00:11:55;2.00;99.90
1453;DHT22;720;47.738;7.998;2023-02-05T00:14:21;1.90;99.90
1453;DHT22;720;47.738;7.998;2023-02-05T00:16:47;1.80;99.90
1453;DHT22;720;47.738;7.998;2023-02-05T00:19:13;1.80;99.90
1453;DHT22;720;47.738;7.998;2023-02-05T00:21:39;1.70;99.90
1453;DHT22;720;47.738;7.998;2023-02-05T00:24:05;1.90;99.90
1453;DHT22;720;47.738;7.998;2023-02-05T00:26:31;1.90;99.90
1453;DHT22;720;47.738;7.998;2023-02-05T00:28:57;1.90;99.90
1453;DHT22;720;47.738;7.998;2023-02-05T00:31:23;2.00;99.90
1453;DHT22;720;47.738;7.998;2023-02-05T00:33:49;2.10;99.90
1453;DHT22;720;47.738;7.998;2023-02-05T00:36:16;2.00;99.90
1453;DHT22;720;47.738;7.998;2023-02-05T00:38:43;2.00;99.90
1453;DHT22;720;47.738;7.998;2023-02-05T00:41:09;1.90;99.90
1453;DHT22;720;47.738;7.998;2023-02-05T00:43:36;1.90;99.90
1453;DHT22;720;47.738;7.998;2023-02-05T00:46:02;1.90;99.90
1453;DHT22;720;47.738;7.998;2023-02-05T00:48:28;1.80;99.90
1453;DHT22;720;47.738;7.998;2023-02-05T00:50:53;1.80;99.90
1453;DHT22;720;47.738;7.998;2023-02-05T00:53:19;1.70;99.90
1453;DHT22;720;47.738;7.998;2023-02-05T00:55:45;1.70;99.90
1453;DHT22;720;47.738;7.998;2023-02-05T00:58:11;1.70;99.90
1453;DHT22;720;47.738;7.998;2023-02-05T01:00:37;1.90;99.90
1453;DHT22;720;47.738;7.998;2023-02-05T01:03:03;1.90;99.90
1453;DHT22;720;47.738;7.998;2023-02-05T01:05:28;1.90;99.90
1453;DHT22;720;47.738;7.998;2023-02-05T01:07:57;1.80;99.90
1453;DHT22;720;47.738;7.998;2023-02-05T01:10:23;1.70;99.90
1453;DHT22;720;47.738;7.998;2023-02-05T01:12:49;1.80;99.90
1453;DHT22;720;47.738;7.998;2023-02-05T01:15:15;1.80;99.90
1453;DHT22;720;47.738;7.998;2023-02-05T01:17:41;1.70;99.90
1453;DHT22;720;47.738;7.998;2023-02-05T01:20:07;1.70;99.90
1453;DHT22;720;47.738;7.998;2023-02-05T01:22:33;1.60;99.90
1453;DHT22;720;47.738;7.998;2023-02-05T01:24:59;1.60;99.90
1453;DHT22;720;47.738;7.998;2023-02-05T01:27:24;1.50;99.90
1453;DHT22;720;47.738;7.998;2023-02-05T01:29:50;1.50;99.90
1453;DHT22;720;47.738;7.998;2023-02-05T01:32:16;1.50;99.90
1453;DHT22;720;47.738;7.998;2023-02-05T01:34:43;1.40;99.90
1453;DHT22;720;47.738;7.998;2023-02-05T01:37:09;1.50;99.90
1453;DHT22;720;47.738;7.998;2023-02-05T01:39:35;1.60;99.90
1453;DHT22;720;47.738;7.998;2023-02-05T01:42:02;1.60;99.90
1453;DHT22;720;47.738;7.998;2023-02-05T01:44:29;1.60;99.90
1453;DHT22;720;47.738;7.998;2023-02-05T01:46:55;1.50;99.90
1453;DHT22;720;47.738;7.998;2023-02-05T01:49:27;1.50;99.90
1453;DHT22;720;47.738;7.998;2023-02-05T01:51:59;1.50;99.90
1453;DHT22;720;47.738;7.998;2023-02-05T01:54:28;1.50;99.90
1453;DHT22;720;47.738;7.998;2023-02-05T01:57:02;1.40;99.90
1453;DHT22;720;47.738;7.998;2023-02-05T01:59:31;1.40;99.90
1453;DHT22;720;47.738;7.998;2023-02-05T02:01:59;1.40;99.90
1453;DHT22;720;47.738;7.998;2023-02-05T02:04:46;1.50;99.90
1453;DHT22;720;47.738;7.998;2023-02-05T02:07:16;1.40;99.90
1453;DHT22;720;47.738;7.998;2023-02-05T02:09:44;1.40;99.90
1453;DHT22;720;47.738;7.998;2023-02-05T02:12:12;1.30;99.90
1453;DHT22;720;47.738;7.998;2023-02-05T02:14:40;1.20;99.90
1453;DHT22;720;47.738;7.998;2023-02-05T02:17:08;1.20;99.90
1453;DHT22;720;47.738;7.998;2023-02-05T02:22:50;1.10;99.90
1453;DHT22;720;47.738;7.998;2023-02-05T02:33:59;1.20;99.90
1453;DHT22;720;47.738;7.998;2023-02-05T02:36:33;1.20;99.90
1453;DHT22;720;47.738;7.998;2023-02-05T02:41:53;1.20;99.90
1453;DHT22;720;47.738;7.998;2023-02-05T02:47:01;1.00;99.90
1453;DHT22;720;47.738;7.998;2023-02-05T02:49:53;0.90;99.90
1453;DHT22;720;47.738;7.998;2023-02-05T02:52:19;0.90;99.90
1453;DHT22;720;47.738;7.998;2023-02-05T02:54:47;0.90;99.90
1453;DHT22;720;47.738;7.998;2023-02-05T02:57:14;1.00;99.90
1453;DHT22;720;47.738;7.998;2023-02-05T02:59:43;1.00;99.90
1453;DHT22;720;47.738;7.998;2023-02-05T03:02:11;1.10;99.90
1453;DHT22;720;47.738;7.998;2023-02-05T03:04:43;1.10;99.90
1453;DHT22;720;47.738;7.998;2023-02-05T03:08:01;1.10;99.90
1453;DHT22;720;47.738;7.998;2023-02-05T03:10:40;1.00;99.90
1453;DHT22;720;47.738;7.998;2023-02-05T03:13:11;1.00;99.90
1453;DHT22;720;47.738;7.998;2023-02-05T03:15:39;1.10;99.90
1453;DHT22;720;47.738;7.998;2023-02-05T03:18:06;1.10;99.90
1453;DHT22;720;47.738;7.998;2023-02-05T03:20:41;1.10;99.90
1453;DHT22;720;47.738;7.998;2023-02-05T03:23:09;1.10;99.90
1453;DHT22;720;47.738;7.998;2023-02-05T03:25:35;1.10;99.90
1453;DHT22;720;47.738;7.998;2023-02-05T03:28:00;1.10;99.90
1453;DHT22;720;47.738;7.998;2023-02-05T03:39:14;1.00;99.90
1453;DHT22;720;47.738;7.998;2023-02-05T03:42:01;1.10;99.90
1453;DHT22;720;47.738;7.998;2023-02-05T03:50:30;1.20;99.90
1453;DHT22;720;47.738;7.998;2023-02-05T03:53:05;1.20;99.90
1453;DHT22;720;47.738;7.998;2023-02-05T03:55:40;1.10;99.90
1453;DHT22;720;47.738;7.998;2023-02-05T03:58:18;1.00;99.90
1453;DHT22;720;47.738;7.998;2023-02-05T04:00:47;1.10;99.90
1453;DHT22;720;47.738;7.998;2023-02-05T04:03:14;1.20;99.90
1453;DHT22;720;47.738;7.998;2023-02-05T04:05:40;1.20;99.90
1453;DHT22;720;47.738;7.998;2023-02-05T04:08:06;1.20;99.90
1453;DHT22;720;47.738;7.998;2023-02-05T04:10:31;1.20;99.90
1453;DHT22;720;47.738;7.998;2023-02-05T04:12:57;1.10;99.90
1453;DHT22;720;47.738;7.998;2023-02-05T04:15:22;1.00;99.90
1453;DHT22;720;47.738;7.998;2023-02-05T04:17:48;1.00;99.90
1453;DHT22;720;47.738;7.998;2023-02-05T04:20:14;0.90;99.90
1453;DHT22;720;47.738;7.998;2023-02-05T04:22:39;0.90;99.90
1453;DHT22;720;47.738;7.998;2023-02-05T04:25:05;0.80;99.90
1453;DHT22;720;47.738;7.998;2023-02-05T04:27:31;0.80;99.90
1453;DHT22;720;47.738;7.998;2023-02-05T04:29:57;0.80;99.90
1453;DHT22;720;47.738;7.998;2023-02-05T04:32:23;0.90;99.90
1453;DHT22;720;47.738;7.998;2023-02-05T04:34:48;0.80;99.90
1453;DHT22;720;47.738;7.998;2023-02-05T04:37:14;0.70;99.90
1453;DHT22;720;47.738;7.998;2023-02-05T04:39:40;0.70;99.90
1453;DHT22;720;47.738;7.998;2023-02-05T04:42:05;0.70;99.90
1453;DHT22;720;47.738;7.998;2023-02-05T04:44:31;0.60;99.90
1453;DHT22;720;47.738;7.998;2023-02-05T04:46:57;0.60;99.90
1453;DHT22;720;47.738;7.998;2023-02-05T04:49:22;0.70;99.90
1453;DHT22;720;47.738;7.998;2023-02-05T04:51:48;0.60;99.90
1453;DHT22;720;47.738;7.998;2023-02-05T04:54:14;0.60;99.90
1453;DHT22;720;47.738;7.998;2023-02-05T04:56:39;0.60;99.90
1453;DHT22;720;47.738;7.998;2023-02-05T04:59:05;0.50;99.90
1453;DHT22;720;47.738;7.998;2023-02-05T05:01:30;0.40;99.90
1453;DHT22;720;47.738;7.998;2023-02-05T05:03:56;0.40;99.90
1453;DHT22;720;47.738;7.998;2023-02-05T05:06:22;0.50;99.90
1453;DHT22;720;47.738;7.998;2023-02-05T05:08:47;0.60;99.90
1453;DHT22;720;47.738;7.998;2023-02-05T05:11:15;0.60;99.90
1453;DHT22;720;47.738;7.998;2023-02-05T05:13:42;0.60;99.90
1453;DHT22;720;47.738;7.998;2023-02-05T05:16:08;0.60;99.90
1453;DHT22;720;47.738;7.998;2023-02-05T05:18:36;0.50;99.90
1453;DHT22;720;47.738;7.998;2023-02-05T05:21:02;0.50;99.90
1453;DHT22;720;47.738;7.998;2023-02-05T05:23:29;0.50;99.90
1453;DHT22;720;47.738;7.998;2023-02-05T05:25:54;0.50;99.90
1453;DHT22;720;47.738;7.998;2023-02-05T05:28:20;0.60;99.90
1453;DHT22;720;47.738;7.998;2023-02-05T05:30:46;0.50;99.90
1453;DHT22;720;47.738;7.998;2023-02-05T05:33:12;0.40;99.90
1453;DHT22;720;47.738;7.998;2023-02-05T05:35:37;0.40;99.90
1453;DHT22;720;47.738;7.998;2023-02-05T05:38:03;0.30;99.90
1453;DHT22;720;47.738;7.998;2023-02-05T05:40:30;0.30;99.90
1453;DHT22;720;47.738;7.998;2023-02-05T05:43:18;0.20;99.90
1453;DHT22;720;47.738;7.998;2023-02-05T05:46:04;0.40;99.90
1453;DHT22;720;47.738;7.998;2023-02-05T05:48:30;0.50;99.90
1453;DHT22;720;47.738;7.998;2023-02-05T05:50:56;0.40;99.90
1453;DHT22;720;47.738;7.998;2023-02-05T05:53:21;0.40;99.90
1453;DHT22;720;47.738;7.998;2023-02-05T05:55:47;0.30;99.90
1453;DHT22;720;47.738;7.998;2023-02-05T05:58:13;0.30;99.90
1453;DHT22;720;47.738;7.998;2023-02-05T06:00:40;0.40;99.90
1453;DHT22;720;47.738;7.998;2023-02-05T06:03:06;0.40;99.90
1453;DHT22;720;47.738;7.998;2023-02-05T06:05:32;0.40;99.90
1453;DHT22;720;47.738;7.998;2023-02-05T06:07:58;0.40;99.90
1453;DHT22;720;47.738;7.998;2023-02-05T06:10:24;0.40;99.90
1453;DHT22;720;47.738;7.998;2023-02-05T06:12:49;0.50;99.90
1453;DHT22;720;47.738;7.998;2023-02-05T06:15:17;0.50;99.90
1453;DHT22;720;47.738;7.998;2023-02-05T06:17:43;0.40;99.90
1453;DHT22;720;47.738;7.998;2023-02-05T06:20:10;0.30;99.90
1453;DHT22;720;47.738;7.998;2023-02-05T06:22:37;0.20;99.90
1453;DHT22;720;47.738;7.998;2023-02-05T06:25:02;0.20;99.90
1453;DHT22;720;47.738;7.998;2023-02-05T06:27:29;0.20;99.90
1453;DHT22;720;47.738;7.998;2023-02-05T06:29:54;0.30;99.90
1453;DHT22;720;47.738;7.998;2023-02-05T06:32:20;0.40;99.90
1453;DHT22;720;47.738;7.998;2023-02-05T06:34:46;0.30;99.90
1453;DHT22;720;47.738;7.998;2023-02-05T06:37:12;0.20;99.90
1453;DHT22;720;47.738;7.998;2023-02-05T06:39:38;0.10;99.90
1453;DHT22;720;47.738;7.998;2023-02-05T06:42:03;0.20;99.90
1453;DHT22;720;47.738;7.998;2023-02-05T06:44:29;0.30;99.90
1453;DHT22;720;47.738;7.998;2023-02-05T06:46:55;0.20;99.90
1453;DHT22;720;47.738;7.998;2023-02-05T06:49:20;0.20;99.90
1453;DHT22;720;47.738;7.998;2023-02-05T06:51:46;0.20;99.90
1453;DHT22;720;47.738;7.998;2023-02-05T06:54:11;0.30;99.90
1453;DHT22;720;47.738;7.998;2023-02-05T06:56:37;0.30;99.90
1453;DHT22;720;47.738;7.998;2023-02-05T06:59:03;0.30;99.90
1453;DHT22;720;47.738;7.998;2023-02-05T07:01:29;0.30;99.90
1453;DHT22;720;47.738;7.998;2023-02-05T07:03:54;0.30;99.90
1453;DHT22;720;47.738;7.998;2023-02-05T07:06:23;0.50;99.90
1453;DHT22;720;47.738;7.998;2023-02-05T07:08:50;0.60;99.90
1453;DHT22;720;47.738;7.998;2023-02-05T07:11:15;0.70;99.90
1453;DHT22;720;47.738;7.998;2023-02-05T07:13:41;0.90;99.90
1453;DHT22;720;47.738;7.998;2023-02-05T07:16:07;1.00;99.90
1453;DHT22;720;47.738;7.998;2023-02-05T07:18:33;1.20;99.90
1453;DHT22;720;47.738;7.998;2023-02-05T07:20:59;1.40;99.90
1453;DHT22;720;47.738;7.998;2023-02-05T07:23:28;1.50;99.90
1453;DHT22;720;47.738;7.998;2023-02-05T07:25:53;1.50;99.90
1453;DHT22;720;47.738;7.998;2023-02-05T07:28:19;1.50;99.90
1453;DHT22;720;47.738;7.998;2023-02-05T07:30:45;1.60;99.90
1453;DHT22;720;47.738;7.998;2023-02-05T07:33:12;1.70;99.90
1453;DHT22;720;47.738;7.998;2023-02-05T07:35:38;1.80;99.90
1453;DHT22;720;47.738;7.998;2023-02-05T07:38:04;1.90;99.90
1453;DHT22;720;47.738;7.998;2023-02-05T07:40:30;2.10;99.90
1453;DHT22;720;47.738;7.998;2023-02-05T07:42:56;2.10;99.90
1453;DHT22;720;47.738;7.998;2023-02-05T07:45:23;2.10;99.90
1453;DHT22;720;47.738;7.998;2023-02-05T07:47:49;2.20;99.90
1453;DHT22;720;47.738;7.998;2023-02-05T07:50:16;2.30;99.90
1453;DHT22;720;47.738;7.998;2023-02-05T07:52:42;2.40;99.90
1453;DHT22;720;47.738;7.998;2023-02-05T07:55:08;2.50;99.90
1453;DHT22;720;47.738;7.998;2023-02-05T07:57:33;2.60;99.90
1453;DHT22;720;47.738;7.998;2023-02-05T07:59:59;2.80;99.70
1453;DHT22;720;47.738;7.998;2023-02-05T08:02:25;2.90;99.70
1453;DHT22;720;47.738;7.998;2023-02-05T08:04:51;2.90;99.90
1453;DHT22;720;47.738;7.998;2023-02-05T08:07:16;2.90;99.70
1453;DHT22;720;47.738;7.998;2023-02-05T08:09:42;2.90;99.80
1453;DHT22;720;47.738;7.998;2023-02-05T08:12:08;3.50;99.80
1453;DHT22;720;47.738;7.998;2023-02-05T08:14:34;3.00;99.60
1453;DHT22;720;47.738;7.998;2023-02-05T08:17:00;3.20;99.70
1453;DHT22;720;47.738;7.998;2023-02-05T08:19:26;3.30;99.80
1453;DHT22;720;47.738;7.998;2023-02-05T08:21:51;3.40;99.80
1453;DHT22;720;47.738;7.998;2023-02-05T08:24:18;3.50;99.70
1453;DHT22;720;47.738;7.998;2023-02-05T08:26:43;3.60;99.60
1453;DHT22;720;47.738;7.998;2023-02-05T08:29:10;3.50;98.90
1453;DHT22;720;47.738;7.998;2023-02-05T08:31:37;3.50;99.00
1453;DHT22;720;47.738;7.998;2023-02-05T08:34:03;3.60;98.70
1453;DHT22;720;47.738;7.998;2023-02-05T08:36:29;3.70;98.60
1453;DHT22;720;47.738;7.998;2023-02-05T08:38:54;3.80;98.70
1453;DHT22;720;47.738;7.998;2023-02-05T08:41:20;3.70;98.40
1453;DHT22;720;47.738;7.998;2023-02-05T08:43:48;3.80;98.60
1453;DHT22;720;47.738;7.998;2023-02-05T08:46:17;3.80;98.80
1453;DHT22;720;47.738;7.998;2023-02-05T08:48:44;3.80;98.60
1453;DHT22;720;47.738;7.998;2023-02-05T08:51:10;3.90;98.60
1453;DHT22;720;47.738;7.998;2023-02-05T08:53:36;4.00;98.80
1453;DHT22;720;47.738;7.998;2023-02-05T08:56:03;4.00;98.70
1453;DHT22;720;47.738;7.998;2023-02-05T08:58:29;3.90;98.40
1453;DHT22;720;47.738;7.998;2023-02-05T09:01:02;3.90;98.50
1453;DHT22;720;47.738;7.998;2023-02-05T09:03:29;4.00;98.10
1453;DHT22;720;47.738;7.998;2023-02-05T09:05:55;4.00;98.10
1453;DHT22;720;47.738;7.998;2023-02-05T09:08:21;3.90;98.20
1453;DHT22;720;47.738;7.998;2023-02-05T09:10:47;3.80;98.50
1453;DHT22;720;47.738;7.998;2023-02-05T09:13:12;3.80;99.00
1453;DHT22;720;47.738;7.998;2023-02-05T09:15:45;3.90;99.50
1453;DHT22;720;47.738;7.998;2023-02-05T09:18:11;3.90;99.40
1453;DHT22;720;47.738;7.998;2023-02-05T09:20:41;3.80;99.20
1453;DHT22;720;47.738;7.998;2023-02-05T09:23:09;3.90;99.00
1453;DHT22;720;47.738;7.998;2023-02-05T09:25:38;4.00;99.10
1453;DHT22;720;47.738;7.998;2023-02-05T09:28:05;4.00;99.00
1453;DHT22;720;47.738;7.998;2023-02-05T09:30:34;4.00;99.20
1453;DHT22;720;47.738;7.998;2023-02-05T09:33:00;4.20;99.50
1453;DHT22;720;47.738;7.998;2023-02-05T09:35:26;4.30;99.50
1453;DHT22;720;47.738;7.998;2023-02-05T09:37:51;4.40;99.40
1453;DHT22;720;47.738;7.998;2023-02-05T09:40:19;4.40;99.40
1453;DHT22;720;47.738;7.998;2023-02-05T09:43:50;4.40;99.50
1453;DHT22;720;47.738;7.998;2023-02-05T09:46:00;4.50;99.40
1453;DHT22;720;47.738;7.998;2023-02-05T09:48:40;4.60;99.30
1453;DHT22;720;47.738;7.998;2023-02-05T09:51:09;4.60;99.30
1453;DHT22;720;47.738;7.998;2023-02-05T09:53:40;4.70;99.20
1453;DHT22;720;47.738;7.998;2023-02-05T09:56:08;4.70;99.00
1453;DHT22;720;47.738;7.998;2023-02-05T09:58:40;4.80;98.70
1453;DHT22;720;47.738;7.998;2023-02-05T10:01:17;4.90;98.50
1453;DHT22;720;47.738;7.998;2023-02-05T10:03:47;4.90;98.60
1453;DHT22;720;47.738;7.998;2023-02-05T10:12:29;4.90;98.80
1453;DHT22;720;47.738;7.998;2023-02-05T10:15:08;4.90;98.90
1453;DHT22;720;47.738;7.998;2023-02-05T10:20:59;4.90;98.90
1453;DHT22;720;47.738;7.998;2023-02-05T10:26:22;5.10;98.90
1453;DHT22;720;47.738;7.998;2023-02-05T10:29:20;5.00;98.60
1453;DHT22;720;47.738;7.998;2023-02-05T10:37:17;5.20;98.50
1453;DHT22;720;47.738;7.998;2023-02-05T10:39:45;5.20;98.30
1453;DHT22;720;47.738;7.998;2023-02-05T10:42:30;5.20;98.10
1453;DHT22;720;47.738;7.998;2023-02-05T10:45:17;5.20;98.40
1453;DHT22;720;47.738;7.998;2023-02-05T10:48:06;5.20;98.50
1453;DHT22;720;47.738;7.998;2023-02-05T10:50:48;5.10;98.60
1453;DHT22;720;47.738;7.998;2023-02-05T10:53:21;5.20;98.60
1453;DHT22;720;47.738;7.998;2023-02-05T10:55:48;5.30;98.50
1453;DHT22;720;47.738;7.998;2023-02-05T10:58:37;5.40;98.50
1453;DHT22;720;47.738;7.998;2023-02-05T11:01:13;5.40;98.50
1453;DHT22;720;47.738;7.998;2023-02-05T11:03:43;5.50;98.40
1453;DHT22;720;47.738;7.998;2023-02-05T11:06:12;5.60;98.20
1453;DHT22;720;47.738;7.998;2023-02-05T11:08:41;5.50;98.00
1453;DHT22;720;47.738;7.998;2023-02-05T11:11:26;5.40;98.00
1453;DHT22;720;47.738;7.998;2023-02-05T11:14:00;5.60;98.20
1453;DHT22;720;47.738;7.998;2023-02-05T11:16:41;5.60;98.00
1453;DHT22;720;47.738;7.998;2023-02-05T11:19:26;5.70;98.20
1453;DHT22;720;47.738;7.998;2023-02-05T11:21:57;5.70;97.90
1453;DHT22;720;47.738;7.998;2023-02-05T11:29:40;5.60;98.00
1453;DHT22;720;47.738;7.998;2023-02-05T11:32:20;5.50;98.00
1453;DHT22;720;47.738;7.998;2023-02-05T11:34:45;5.60;98.10
1453;DHT22;720;47.738;7.998;2023-02-05T11:37:16;5.70;98.10
1453;DHT22;720;47.738;7.998;2023-02-05T11:39:44;5.70;97.80
1453;DHT22;720;47.738;7.998;2023-02-05T11:42:21;5.60;97.80
1453;DHT22;720;47.738;7.998;2023-02-05T11:44:51;5.60;97.90
1453;DHT22;720;47.738;7.998;2023-02-05T11:47:28;5.50;97.80
1453;DHT22;720;47.738;7.998;2023-02-05T11:49:55;5.40;98.00
1453;DHT22;720;47.738;7.998;2023-02-05T11:52:25;5.40;98.20
1453;DHT22;720;47.738;7.998;2023-02-05T11:54:52;5.40;98.40
1453;DHT22;720;47.738;7.998;2023-02-05T12:05:01;5.20;98.70
1453;DHT22;720;47.738;7.998;2023-02-05T12:07:39;5.10;98.70
1453;DHT22;720;47.738;7.998;2023-02-05T12:19:12;4.90;99.60
1453;DHT22;720;47.738;7.998;2023-02-05T12:21:56;4.90;99.60
1453;DHT22;720;47.738;7.998;2023-02-05T12:25:03;5.10;99.40
1453;DHT22;720;47.738;7.998;2023-02-05T12:30:38;5.40;99.00
1453;DHT22;720;47.738;7.998;2023-02-05T12:33:29;5.30;98.70
1453;DHT22;720;47.738;7.998;2023-02-05T12:38:37;5.00;99.10
1453;DHT22;720;47.738;7.998;2023-02-05T12:44:00;5.00;99.40
1453;DHT22;720;47.738;7.998;2023-02-05T12:46:52;5.00;99.40
1453;DHT22;720;47.738;7.998;2023-02-05T12:55:14;5.00;99.90
1453;DHT22;720;47.738;7.998;2023-02-05T12:57:50;5.00;99.90
1453;DHT22;720;47.738;7.998;2023-02-05T13:00:37;5.00;99.80
1453;DHT22;720;47.738;7.998;2023-02-05T13:03:13;5.10;99.80
1453;DHT22;720;47.738;7.998;2023-02-05T13:05:48;5.10;99.70
1453;DHT22;720;47.738;7.998;2023-02-05T13:08:30;5.20;99.70
1453;DHT22;720;47.738;7.998;2023-02-05T13:11:05;5.20;99.60
1453;DHT22;720;47.738;7.998;2023-02-05T13:13:50;5.20;99.70
1453;DHT22;720;47.738;7.998;2023-02-05T13:16:17;5.30;99.80
1453;DHT22;720;47.738;7.998;2023-02-05T13:19:30;5.30;99.60
1453;DHT22;720;47.738;7.998;2023-02-05T13:21:35;5.40;99.60
1453;DHT22;720;47.738;7.998;2023-02-05T13:24:37;5.50;99.60
1453;DHT22;720;47.738;7.998;2023-02-05T13:27:27;5.70;99.50
1453;DHT22;720;47.738;7.998;2023-02-05T13:30:23;5.90;98.90
1453;DHT22;720;47.738;7.998;2023-02-05T13:32:52;5.90;98.60
1453;DHT22;720;47.738;7.998;2023-02-05T13:35:20;5.80;98.60
1453;DHT22;720;47.738;7.998;2023-02-05T13:46:51;5.80;98.20
1453;DHT22;720;47.738;7.998;2023-02-05T13:58:17;5.50;98.60
1453;DHT22;720;47.738;7.998;2023-02-05T14:01:13;5.40;98.70
1453;DHT22;720;47.738;7.998;2023-02-05T14:03:55;5.40;99.00
1453;DHT22;720;47.738;7.998;2023-02-05T14:06:37;5.30;99.10
1453;DHT22;720;47.738;7.998;2023-02-05T14:09:07;5.30;99.30
1453;DHT22;720;47.738;7.998;2023-02-05T14:11:55;5.20;99.20
1453;DHT22;720;47.738;7.998;2023-02-05T14:14:26;5.20;99.30
1453;DHT22;720;47.738;7.998;2023-02-05T14:16:53;5.20;99.30
1453;DHT22;720;47.738;7.998;2023-02-05T14:19:21;5.10;99.40
1453;DHT22;720;47.738;7.998;2023-02-05T14:22:03;5.10;99.50
1453;DHT22;720;47.738;7.998;2023-02-05T14:29:51;4.90;99.90
1453;DHT22;720;47.738;7.998;2023-02-05T14:35:07;5.10;99.70
1453;DHT22;720;47.738;7.998;2023-02-05T14:37:49;5.00;99.70
1453;DHT22;720;47.738;7.998;2023-02-05T14:40:29;5.00;99.80
1453;DHT22;720;47.738;7.998;2023-02-05T14:43:25;5.00;99.90
1453;DHT22;720;47.738;7.998;2023-02-05T14:45:52;5.10;99.80
1453;DHT22;720;47.738;7.998;2023-02-05T14:48:31;5.00;99.90
1453;DHT22;720;47.738;7.998;2023-02-05T14:51:23;5.00;99.90
1453;DHT22;720;47.738;7.998;2023-02-05T14:53:56;4.90;99.80
1453;DHT22;720;47.738;7.998;2023-02-05T14:56:44;4.80;99.90
1453;DHT22;720;47.738;7.998;2023-02-05T15:07:58;5.00;99.80
1453;DHT22;720;47.738;7.998;2023-02-05T15:10:27;5.20;99.70
1453;DHT22;720;47.738;7.998;2023-02-05T15:13:18;5.20;99.50
1453;DHT22;720;47.738;7.998;2023-02-05T15:16:19;5.20;99.50
1453;DHT22;720;47.738;7.998;2023-02-05T15:18:50;5.10;99.60
1453;DHT22;720;47.738;7.998;2023-02-05T15:24:01;5.10;99.70
1453;DHT22;720;47.738;7.998;2023-02-05T15:29:31;5.10;99.90
1453;DHT22;720;47.738;7.998;2023-02-05T15:32:02;5.10;99.90
1453;DHT22;720;47.738;7.998;2023-02-05T15:34:42;5.00;99.70
1453;DHT22;720;47.738;7.998;2023-02-05T15:40:09;4.90;99.90
1453;DHT22;720;47.738;7.998;2023-02-05T15:42:42;4.80;99.90
1453;DHT22;720;47.738;7.998;2023-02-05T15:45:35;4.80;99.90
1453;DHT22;720;47.738;7.998;2023-02-05T15:50:35;4.70;99.90
1453;DHT22;720;47.738;7.998;2023-02-05T15:53:04;4.60;99.90
1453;DHT22;720;47.738;7.998;2023-02-05T15:55:32;4.60;99.90
1453;DHT22;720;47.738;7.998;2023-02-05T15:58:03;4.60;99.90
1453;DHT22;720;47.738;7.998;2023-02-05T16:00:49;4.50;99.90
1453;DHT22;720;47.738;7.998;2023-02-05T16:03:32;4.50;99.90
1453;DHT22;720;47.738;7.998;2023-02-05T16:05:59;4.50;99.90
1453;DHT22;720;47.738;7.998;2023-02-05T16:08:24;4.50;99.90
1453;DHT22;720;47.738;7.998;2023-02-05T16:10:56;4.40;99.90
1453;DHT22;720;47.738;7.998;2023-02-05T16:13:24;4.40;99.90
1453;DHT22;720;47.738;7.998;2023-02-05T16:16:04;4.40;99.90
1453;DHT22;720;47.738;7.998;2023-02-05T16:18:47;4.40;99.90
1453;DHT22;720;47.738;7.998;2023-02-05T16:21:31;4.40;99.90
1453;DHT22;720;47.738;7.998;2023-02-05T16:24:25;4.30;99.90
1453;DHT22;720;47.738;7.998;2023-02-05T16:27:20;4.40;99.90
1453;DHT22;720;47.738;7.998;2023-02-05T16:29:51;4.40;99.90
1453;DHT22;720;47.738;7.998;2023-02-05T16:32:32;4.40;99.90
1453;DHT22;720;47.738;7.998;2023-02-05T16:35:01;4.40;99.90
1453;DHT22;720;47.738;7.998;2023-02-05T16:37:30;4.30;99.90
1453;DHT22;720;47.738;7.998;2023-02-05T16:39:58;4.30;99.90
1453;DHT22;720;47.738;7.998;2023-02-05T16:45:07;4.20;99.90
1453;DHT22;720;47.738;7.998;2023-02-05T16:47:38;4.10;99.90
1453;DHT22;720;47.738;7.998;2023-02-05T16:50:42;4.00;99.90
1453;DHT22;720;47.738;7.998;2023-02-05T16:53:20;4.00;99.90
1453;DHT22;720;47.738;7.998;2023-02-05T16:55:47;4.10;99.90
1453;DHT22;720;47.738;7.998;2023-02-05T16:58:21;4.10;99.90
1453;DHT22;720;47.738;7.998;2023-02-05T17:00:59;4.10;99.90
1453;DHT22;720;47.738;7.998;2023-02-05T17:03:29;4.10;99.90
1453;DHT22;720;47.738;7.998;2023-02-05T17:05:59;4.00;99.90
1453;DHT22;720;47.738;7.998;2023-02-05T17:08:31;3.90;99.90
1453;DHT22;720;47.738;7.998;2023-02-05T17:11:03;3.90;99.90
1453;DHT22;720;47.738;7.998;2023-02-05T17:13:42;3.80;99.90
1453;DHT22;720;47.738;7.998;2023-02-05T17:16:24;3.80;99.90
1453;DHT22;720;47.738;7.998;2023-02-05T17:18:59;3.80;99.90
1453;DHT22;720;47.738;7.998;2023-02-05T17:21:33;3.70;99.90
1453;DHT22;720;47.738;7.998;2023-02-05T17:24:00;3.60;99.90
1453;DHT22;720;47.738;7.998;2023-02-05T17:26:31;3.50;99.90
1453;DHT22;720;47.738;7.998;2023-02-05T17:29:00;3.50;99.90
1453;DHT22;720;47.738;7.998;2023-02-05T17:31:26;3.40;99.90
1453;DHT22;720;47.738;7.998;2023-02-05T17:33:56;3.40;99.90
1453;DHT22;720;47.738;7.998;2023-02-05T17:36:23;3.30;99.90
1453;DHT22;720;47.738;7.998;2023-02-05T17:38:49;3.20;99.90
1453;DHT22;720;47.738;7.998;2023-02-05T17:41:24;3.30;99.90
1453;DHT22;720;47.738;7.998;2023-02-05T17:44:14;3.20;99.90
1453;DHT22;720;47.738;7.998;2023-02-05T17:46:41;3.20;99.90
1453;DHT22;720;47.738;7.998;2023-02-05T17:49:07;3.20;99.90
1453;DHT22;720;47.738;7.998;2023-02-05T17:51:32;3.20;99.90
1453;DHT22;720;47.738;7.998;2023-02-05T17:53:58;3.20;99.90
1453;DHT22;720;47.738;7.998;2023-02-05T17:56:24;3.20;99.90
1453;DHT22;720;47.738;7.998;2023-02-05T17:58:52;3.20;99.90
1453;DHT22;720;47.738;7.998;2023-02-05T18:01:18;3.30;99.90
1453;DHT22;720;47.738;7.998;2023-02-05T18:03:44;3.40;99.90
1453;DHT22;720;47.738;7.998;2023-02-05T18:06:12;3.40;99.90
1453;DHT22;720;47.738;7.998;2023-02-05T18:08:38;3.60;99.90
1453;DHT22;720;47.738;7.998;2023-02-05T18:11:05;3.60;99.90
1453;DHT22;720;47.738;7.998;2023-02-05T18:13:30;3.60;99.90
1453;DHT22;720;47.738;7.998;2023-02-05T18:15:56;3.60;99.90
1453;DHT22;720;47.738;7.998;2023-02-05T18:18:27;3.60;99.90
1453;DHT22;720;47.738;7.998;2023-02-05T18:20:53;3.60;99.90
1453;DHT22;720;47.738;7.998;2023-02-05T18:23:18;3.70;99.90
1453;DHT22;720;47.738;7.998;2023-02-05T18:25:44;3.70;99.90
1453;DHT22;720;47.738;7.998;2023-02-05T18:28:10;3.80;99.90
1453;DHT22;720;47.738;7.998;2023-02-05T18:30:35;3.70;99.90
1453;DHT22;720;47.738;7.998;2023-02-05T18:33:01;3.70;99.90
1453;DHT22;720;47.738;7.998;2023-02-05T18:35:26;3.80;99.90
1453;DHT22;720;47.738;7.998;2023-02-05T18:37:52;3.70;99.90
1453;DHT22;720;47.738;7.998;2023-02-05T18:40:18;3.70;99.90
1453;DHT22;720;47.738;7.998;2023-02-05T18:42:43;3.80;99.90
1453;DHT22;720;47.738;7.998;2023-02-05T18:45:11;3.80;99.90
1453;DHT22;720;47.738;7.998;2023-02-05T18:47:37;3.80;99.90
1453;DHT22;720;47.738;7.998;2023-02-05T18:50:04;3.70;99.90
1453;DHT22;720;47.738;7.998;2023-02-05T18:52:30;3.70;99.90
1453;DHT22;720;47.738;7.998;2023-02-05T18:54:56;3.60;99.90
1453;DHT22;720;47.738;7.998;2023-02-05T18:57:21;3.60;99.90
1453;DHT22;720;47.738;7.998;2023-02-05T18:59:47;3.60;99.90
1453;DHT22;720;47.738;7.998;2023-02-05T19:02:13;3.70;99.90
1453;DHT22;720;47.738;7.998;2023-02-05T19:04:39;3.70;99.90
1453;DHT22;720;47.738;7.998;2023-02-05T19:07:06;3.70;99.90
1453;DHT22;720;47.738;7.998;2023-02-05T19:09:31;3.70;99.90
1453;DHT22;720;47.738;7.998;2023-02-05T19:11:57;3.70;99.90